Time;durP1;ratioP1;P1;durP2;ratioP2;P2;SDS_P1;SDS_P2;PMS_P1;PMS_P2;Temp;Humidity;BMP_temperature;BMP_pressure;BME280_temperature;BME280_humidity;BME280_pressure;Samples;Min_cycle;Max_cycle;Signal;HPM_P1;HPM_P2
2021/10/26 00:01:12;;;;;;;42.92;15.50;;;;;;;13.31;78.42;101799.53;4918010;28;20043;-56
2021/10/26 00:03:37;;;;;;;34.75;14.68;;;;;;;13.35;78.33;101803.97;4923031;28;20046;-56
2021/10/26 00:06:02;;;;;;;42.78;15.48;;;;;;;13.32;78.26;101800.41;4925512;28;20047;-54
2021/10/26 00:08:28;;;;;;;36.97;14.52;;;;;;;13.33;78.31;101810.91;4924098;28;20047;-52
2021/10/26 00:10:53;;;;;;;43.10;14.63;;;;;;;13.37;78.29;101809.22;4914565;28;20434;-56
2021/10/26 00:13:19;;;;;;;36.92;14.25;;;;;;;13.38;78.32;101808.38;4922196;28;20456;-54
2021/10/26 00:15:44;;;;;;;38.08;13.63;;;;;;;13.44;78.26;101811.09;4922010;28;20050;-55
2021/10/26 00:18:09;;;;;;;40.03;14.13;;;;;;;13.47;78.29;101813.78;4924039;28;20478;-55
2021/10/26 00:20:35;;;;;;;34.05;13.25;;;;;;;13.50;78.18;101813.81;4924728;28;20039;-54
2021/10/26 00:23:00;;;;;;;38.45;13.90;;;;;;;13.51;78.49;101820.81;4912736;28;20392;-53
2021/10/26 00:25:26;;;;;;;30.88;12.63;;;;;;;13.53;78.17;101816.50;4920952;28;20055;-56
2021/10/26 00:27:52;;;;;;;33.53;13.00;;;;;;;13.54;78.27;101814.75;4921538;28;20047;-56
2021/10/26 00:30:17;;;;;;;37.53;12.80;;;;;;;13.50;78.08;101819.03;4921676;28;20147;-56
2021/10/26 00:32:46;;;;;;;31.92;12.25;;;;;;;13.45;78.15;101814.59;4922280;28;20058;-53
2021/10/26 00:35:12;;;;;;;30.80;12.20;;;;;;;13.40;78.22;101812.78;4920814;28;20506;-54
2021/10/26 00:37:37;;;;;;;32.90;12.45;;;;;;;13.36;78.08;101817.91;4921750;28;20047;-50
2021/10/26 00:40:06;;;;;;;33.80;12.73;;;;;;;13.34;78.14;101822.28;4919643;28;20362;-55
2021/10/26 00:42:31;;;;;;;30.42;11.63;;;;;;;13.30;77.91;101831.78;4937765;28;20510;-52
2021/10/26 00:44:57;;;;;;;32.20;11.93;;;;;;;13.15;78.25;101825.41;4917416;28;20055;-53
2021/10/26 00:47:22;;;;;;;29.92;11.45;;;;;;;13.14;78.37;101835.00;4922428;28;20150;-53
2021/10/26 00:49:48;;;;;;;29.58;11.07;;;;;;;13.09;77.90;101834.00;4924563;28;20078;-52
2021/10/26 00:52:13;;;;;;;30.25;11.90;;;;;;;13.08;78.26;101839.22;4924958;28;20055;-54
2021/10/26 00:54:39;;;;;;;36.08;12.68;;;;;;;13.07;78.46;101838.31;4922284;28;20082;-54
2021/10/26 00:57:04;;;;;;;29.95;11.25;;;;;;;13.06;78.04;101835.66;4915799;28;20043;-53
2021/10/26 00:59:29;;;;;;;33.83;12.00;;;;;;;12.97;78.28;101842.53;4925417;28;20499;-53
2021/10/26 01:01:55;;;;;;;26.92;11.32;;;;;;;12.98;78.27;101844.28;4916818;28;20043;-52
2021/10/26 01:04:20;;;;;;;31.30;10.50;;;;;;;12.98;77.97;101841.69;4923621;28;20070;-55
2021/10/26 01:06:46;;;;;;;28.42;10.75;;;;;;;12.87;78.04;101845.78;4917420;28;20061;-53
2021/10/26 01:09:11;;;;;;;30.35;10.23;;;;;;;12.86;77.66;101845.78;4918163;28;20058;-55
2021/10/26 01:11:37;;;;;;;32.08;10.85;;;;;;;12.78;78.19;101848.25;4921387;28;20042;-52
2021/10/26 01:14:03;;;;;;;28.65;10.45;;;;;;;12.70;78.02;101841.97;4922163;28;20343;-52
2021/10/26 01:16:29;;;;;;;21.90;9.05;;;;;;;12.68;77.87;101842.81;4918740;28;20865;-55
2021/10/26 01:18:55;;;;;;;25.30;9.35;;;;;;;12.62;77.63;101846.19;4914277;28;20044;-49
2021/10/26 01:21:21;;;;;;;36.30;11.52;;;;;;;12.59;77.97;101839.16;4909916;28;20100;-54
2021/10/26 01:23:46;;;;;;;37.47;10.95;;;;;;;12.59;78.17;101843.50;4923765;28;20035;-54
2021/10/26 01:26:11;;;;;;;27.13;9.90;;;;;;;12.57;78.19;101843.44;4920662;28;20403;-54
2021/10/26 01:28:37;;;;;;;24.02;9.38;;;;;;;12.58;77.55;101837.38;4919157;28;20380;-55
2021/10/26 01:31:03;;;;;;;26.05;10.40;;;;;;;12.50;77.87;101840.69;4918835;28;20819;-56
2021/10/26 01:33:28;;;;;;;25.45;9.93;;;;;;;12.48;77.76;101842.41;4925131;28;20627;-53
2021/10/26 01:35:54;;;;;;;26.17;9.68;;;;;;;12.47;78.15;101845.84;4922041;28;20150;-52
2021/10/26 01:38:22;;;;;;;24.13;8.68;;;;;;;12.43;78.01;101842.31;4923201;28;20220;-53
2021/10/26 01:40:47;;;;;;;29.17;10.48;;;;;;;12.41;78.05;101838.75;4931833;28;20059;-54
2021/10/26 01:43:13;;;;;;;26.00;9.95;;;;;;;12.33;78.06;101842.94;4941718;28;20051;-54
2021/10/26 01:45:38;;;;;;;34.95;11.13;;;;;;;12.27;78.50;101840.19;4939909;28;20071;-50
2021/10/26 01:48:04;;;;;;;36.28;10.70;;;;;;;12.34;78.27;101844.72;4939981;28;20423;-50
2021/10/26 01:50:29;;;;;;;30.20;9.15;;;;;;;12.33;78.01;101848.16;4922761;28;20031;-55
2021/10/26 01:52:56;;;;;;;24.60;8.15;;;;;;;12.29;77.76;101859.41;4915419;28;20113;-53
2021/10/26 01:55:22;;;;;;;24.77;8.57;;;;;;;12.25;78.06;101854.09;4917045;28;20771;-55
2021/10/26 01:57:47;;;;;;;25.88;9.52;;;;;;;12.16;78.44;101854.75;4910361;28;20110;-54
2021/10/26 02:00:13;;;;;;;20.73;8.25;;;;;;;12.19;78.07;101860.97;4917050;28;20377;-55
2021/10/26 02:02:39;;;;;;;28.15;9.75;;;;;;;12.19;77.80;101854.84;4922062;28;20767;-51
2021/10/26 02:05:05;;;;;;;29.25;8.23;;;;;;;12.18;77.81;101853.97;4912709;28;20808;-51
2021/10/26 02:07:31;;;;;;;27.02;9.13;;;;;;;12.10;78.03;101860.75;4926641;28;20042;-55
2021/10/26 02:09:56;;;;;;;20.00;8.45;;;;;;;12.10;77.36;101865.97;4923308;28;20206;-54
2021/10/26 02:12:22;;;;;;;27.10;8.98;;;;;;;12.10;77.90;101857.25;4923074;28;20379;-54
2021/10/26 02:14:48;;;;;;;20.23;8.35;;;;;;;12.08;77.61;101859.81;4901518;28;20127;-53
2021/10/26 02:17:13;;;;;;;26.92;9.32;;;;;;;12.02;77.88;101854.44;4912979;28;20039;-54
2021/10/26 02:19:39;;;;;;;27.73;9.45;;;;;;;12.07;78.19;101859.81;4926310;28;20134;-54
2021/10/26 02:22:04;;;;;;;24.75;8.85;;;;;;;12.10;77.87;101857.25;4923549;28;20165;-52
2021/10/26 02:24:30;;;;;;;27.10;9.90;;;;;;;12.09;78.04;101860.69;4921846;28;20649;-55
2021/10/26 02:26:55;;;;;;;27.13;9.38;;;;;;;12.06;78.24;101858.03;4916453;28;20420;-55
2021/10/26 02:29:21;;;;;;;29.42;9.45;;;;;;;12.07;78.46;101863.31;4928181;28;20051;-55
2021/10/26 02:31:46;;;;;;;22.13;9.35;;;;;;;12.10;78.32;101868.59;4926700;28;20047;-55
2021/10/26 02:34:11;;;;;;;35.65;10.65;;;;;;;12.07;78.17;101865.03;4928748;28;20093;-51
2021/10/26 02:36:37;;;;;;;36.50;11.05;;;;;;;12.06;78.61;101865.88;4927994;28;20141;-52
2021/10/26 02:39:04;;;;;;;32.60;10.05;;;;;;;12.07;78.30;101875.47;4920183;28;20874;-52
2021/10/26 02:41:29;;;;;;;35.45;10.90;;;;;;;12.04;78.54;101876.28;4920322;28;20043;-55
2021/10/26 02:43:54;;;;;;;44.97;11.05;;;;;;;12.05;78.18;101870.22;4921049;28;20054;-54
2021/10/26 02:46:20;;;;;;;27.67;10.02;;;;;;;12.05;77.99;101874.56;4922394;28;20166;-54
2021/10/26 02:48:48;;;;;;;40.50;11.63;;;;;;;11.99;78.15;101872.69;4924441;28;20041;-55
2021/10/26 02:51:15;;;;;;;31.50;9.93;;;;;;;12.00;77.81;101878.78;4916662;28;20106;-51
2021/10/26 02:53:40;;;;;;;34.75;10.93;;;;;;;11.94;77.89;101876.91;4927179;28;20336;-55
2021/10/26 02:56:05;;;;;;;22.58;8.55;;;;;;;11.90;78.01;101876.78;4924868;28;20410;-51
2021/10/26 02:58:31;;;;;;;23.30;8.93;;;;;;;11.88;77.96;101879.38;4922326;28;20085;-54
2021/10/26 03:00:58;;;;;;;30.00;9.63;;;;;;;11.87;77.85;101880.22;4916726;28;20126;-53
2021/10/26 03:03:24;;;;;;;26.45;9.05;;;;;;;11.97;77.65;101876.97;4924489;28;20051;-53
2021/10/26 03:05:49;;;;;;;30.00;9.30;;;;;;;12.01;78.25;101873.63;4929435;28;20051;-51
2021/10/26 03:08:15;;;;;;;25.80;8.30;;;;;;;12.06;78.04;101873.72;4922256;28;20051;-53
2021/10/26 03:10:41;;;;;;;27.02;8.85;;;;;;;12.01;78.14;101873.63;4928019;28;20075;-54
2021/10/26 03:13:06;;;;;;;26.17;8.30;;;;;;;11.94;78.12;101870.81;4916403;28;22833;-50
2021/10/26 03:15:31;;;;;;;30.75;8.98;;;;;;;11.87;78.04;101868.91;4924612;28;20505;-54
2021/10/26 03:17:58;;;;;;;27.85;9.35;;;;;;;11.82;77.77;101862.69;4922626;28;20048;-54
2021/10/26 03:20:23;;;;;;;20.58;8.05;;;;;;;11.80;77.72;101865.25;4922368;28;20275;-52
2021/10/26 03:22:49;;;;;;;29.70;8.27;;;;;;;11.75;77.66;101859.03;4921301;28;20047;-52
2021/10/26 03:25:15;;;;;;;26.45;8.40;;;;;;;11.72;77.98;101858.91;4923375;28;20548;-50
2021/10/26 03:27:41;;;;;;;32.20;9.30;;;;;;;11.75;78.60;101869.47;4922387;28;20164;-52
2021/10/26 03:30:08;;;;;;;32.10;8.85;;;;;;;11.82;78.29;101868.78;4920369;28;20408;-54
2021/10/26 03:32:34;;;;;;;23.02;7.20;;;;;;;11.84;78.03;101863.56;4920974;28;20533;-53
2021/10/26 03:34:59;;;;;;;23.02;7.68;;;;;;;11.79;78.23;101863.47;4915781;28;20043;-51
2021/10/26 03:37:24;;;;;;;22.58;6.97;;;;;;;11.80;77.92;101862.63;4923965;28;20039;-56
2021/10/26 03:39:55;;;;;;;22.95;7.38;;;;;;;11.79;77.90;101869.59;4923106;28;20071;-53
2021/10/26 03:42:22;;;;;;;24.55;7.78;;;;;;;11.77;77.98;101868.66;4922895;28;20645;-50
2021/10/26 03:44:48;;;;;;;27.25;7.07;;;;;;;11.74;78.05;101868.59;4917270;28;20521;-52
2021/10/26 03:47:14;;;;;;;28.65;7.60;;;;;;;11.72;78.08;101883.31;4923857;28;20055;-55
2021/10/26 03:49:39;;;;;;;25.20;6.90;;;;;;;11.71;77.83;101868.47;4922642;28;20110;-55
2021/10/26 03:52:04;;;;;;;20.35;6.63;;;;;;;11.74;77.75;101872.94;4921709;28;20043;-55
2021/10/26 03:54:30;;;;;;;30.00;7.90;;;;;;;11.67;78.00;101889.25;4924111;28;20436;-56
2021/10/26 03:56:56;;;;;;;21.83;7.20;;;;;;;11.68;77.63;101889.31;4921276;28;20047;-55
2021/10/26 03:59:22;;;;;;;31.75;8.80;;;;;;;11.62;78.12;101883.03;4925453;28;20071;-56
2021/10/26 04:01:47;;;;;;;22.70;7.60;;;;;;;11.59;77.82;101883.84;4923939;28;20047;-53
2021/10/26 04:04:13;;;;;;;28.95;8.90;;;;;;;11.53;78.25;101886.28;4921821;28;20432;-56
2021/10/26 04:06:42;;;;;;;36.53;9.55;;;;;;;11.60;78.17;101890.84;4922745;28;21166;-55
2021/10/26 04:09:10;;;;;;;29.73;8.68;;;;;;;11.61;78.05;101892.59;4918069;28;20046;-56
2021/10/26 04:12:06;;;;;;;24.98;9.70;;;;;;;11.61;78.05;101902.16;4924509;28;20113;-55
2021/10/26 04:14:23;;;;;;;22.27;8.23;;;;;;;11.54;78.29;101901.13;4920683;28;20773;-53
2021/10/26 04:16:49;;;;;;;28.20;9.55;;;;;;;11.43;78.59;101904.31;4918211;28;20395;-55
2021/10/26 04:19:14;;;;;;;29.20;9.30;;;;;;;11.48;78.56;101897.47;4920559;28;20522;-53
2021/10/26 04:21:40;;;;;;;30.83;9.55;;;;;;;11.52;78.18;101901.94;4924297;28;20338;-53
2021/10/26 04:24:05;;;;;;;27.20;9.68;;;;;;;11.57;78.22;101901.22;4926201;28;20045;-54
2021/10/26 04:26:31;;;;;;;30.90;10.00;;;;;;;11.67;78.45;101900.59;4924285;28;20810;-54
2021/10/26 04:28:56;;;;;;;42.08;10.75;;;;;;;11.70;78.20;101899.81;4909239;28;20125;-52
2021/10/26 04:31:22;;;;;;;32.63;10.05;;;;;;;11.69;78.20;101898.91;4918564;28;20157;-53
2021/10/26 04:33:47;;;;;;;30.48;9.85;;;;;;;11.68;78.26;101910.22;4920636;28;20396;-52
2021/10/26 04:36:13;;;;;;;36.58;11.07;;;;;;;11.67;78.30;101911.06;4922176;28;20241;-55
2021/10/26 04:38:38;;;;;;;31.02;9.68;;;;;;;11.71;78.04;101914.63;4922329;28;20412;-55
2021/10/26 04:41:07;;;;;;;33.45;11.57;;;;;;;11.70;78.18;101910.25;4917854;28;20285;-54
2021/10/26 04:43:36;;;;;;;40.13;11.27;;;;;;;11.71;78.58;101906.81;4917170;28;20059;-55
2021/10/26 04:46:03;;;;;;;25.80;9.02;;;;;;;11.72;78.54;101913.75;4931966;28;20074;-54
2021/10/26 04:48:28;;;;;;;39.67;11.57;;;;;;;11.64;78.63;101911.00;4923426;28;20121;-53
2021/10/26 04:50:53;;;;;;;26.45;9.88;;;;;;;11.66;78.41;101919.72;4911532;28;20051;-52
2021/10/26 04:53:20;;;;;;;38.85;11.63;;;;;;;11.65;78.40;101919.69;4924145;28;20090;-53
2021/10/26 04:55:46;;;;;;;32.10;10.27;;;;;;;11.66;78.27;101922.34;4923417;28;20035;-54
2021/10/26 04:58:11;;;;;;;30.13;11.30;;;;;;;11.67;78.50;101926.72;4921328;28;20058;-54
2021/10/26 05:00:37;;;;;;;41.80;11.65;;;;;;;11.68;78.16;101930.22;4922663;28;20043;-54
2021/10/26 05:03:02;;;;;;;30.48;10.48;;;;;;;11.70;78.60;101934.66;4915692;28;20367;-51
2021/10/26 05:05:27;;;;;;;41.15;12.57;;;;;;;11.71;78.40;101928.56;4920893;28;20098;-53
2021/10/26 05:07:53;;;;;;;39.70;11.43;;;;;;;11.76;78.37;101928.72;4917836;28;20051;-54
2021/10/26 05:10:18;;;;;;;38.08;11.30;;;;;;;11.72;78.40;101932.94;4924380;28;20059;-57
2021/10/26 05:12:44;;;;;;;37.92;11.75;;;;;;;11.67;78.70;101928.44;4917755;28;20102;-54
2021/10/26 05:15:11;;;;;;;38.13;10.98;;;;;;;11.62;78.53;101930.94;4916744;28;20487;-58
2021/10/26 05:17:39;;;;;;;40.60;11.75;;;;;;;11.58;78.28;101929.13;4916953;28;20412;-53
2021/10/26 05:20:06;;;;;;;33.95;11.50;;;;;;;11.56;78.15;101937.75;4921084;28;20054;-53
2021/10/26 05:22:32;;;;;;;40.47;11.70;;;;;;;11.46;78.18;101946.19;4921567;28;20039;-55
2021/10/26 05:24:57;;;;;;;40.08;12.25;;;;;;;11.52;78.28;101948.97;4914915;28;20047;-53
2021/10/26 05:27:22;;;;;;;29.83;11.65;;;;;;;11.52;78.33;101938.50;4919351;28;20483;-56
2021/10/26 05:29:48;;;;;;;38.75;13.25;;;;;;;11.50;78.93;101954.13;4922643;28;20585;-54
2021/10/26 05:32:14;;;;;;;48.28;12.50;;;;;;;11.50;78.40;101963.69;4920151;28;20062;-53
2021/10/26 05:34:40;;;;;;;51.92;13.77;;;;;;;11.44;79.14;101958.31;4917867;28;20036;-54
2021/10/26 05:37:06;;;;;;;36.42;13.07;;;;;;;11.48;78.54;101963.63;4912700;28;20416;-55
2021/10/26 05:39:32;;;;;;;48.50;14.10;;;;;;;11.43;78.98;101959.13;4921852;28;20051;-54
2021/10/26 05:41:58;;;;;;;30.48;11.43;;;;;;;11.45;78.54;101962.69;4923396;28;20450;-53
2021/10/26 05:44:24;;;;;;;38.80;12.40;;;;;;;11.43;78.49;101964.38;4921165;28;20096;-55
2021/10/26 05:46:49;;;;;;;46.17;13.55;;;;;;;11.40;78.68;101973.03;4914089;28;20035;-55
2021/10/26 05:49:14;;;;;;;50.50;15.07;;;;;;;11.40;78.35;101973.03;4923145;28;20104;-54
2021/10/26 05:51:40;;;;;;;33.35;12.95;;;;;;;11.40;78.60;101970.41;4924769;28;20047;-55
2021/10/26 05:54:05;;;;;;;34.83;13.02;;;;;;;11.40;78.43;101967.78;4916810;28;20118;-55
2021/10/26 05:56:31;;;;;;;38.53;13.43;;;;;;;11.38;78.43;101957.31;4920820;28;20050;-55
2021/10/26 05:58:56;;;;;;;33.53;12.95;;;;;;;11.40;78.57;101957.34;4921455;28;20047;-55
2021/10/26 06:01:22;;;;;;;43.25;15.32;;;;;;;11.35;78.89;101958.94;4926628;28;20896;-54
2021/10/26 06:03:49;;;;;;;39.50;13.93;;;;;;;11.35;78.50;101957.19;4925530;28;20403;-55
2021/10/26 06:06:14;;;;;;;42.30;15.02;;;;;;;11.36;78.52;101943.31;4923933;28;20049;-55
2021/10/26 06:08:40;;;;;;;34.15;14.00;;;;;;;11.39;78.45;101948.63;4937016;28;20519;-51
2021/10/26 06:11:08;;;;;;;49.47;16.02;;;;;;;11.36;78.29;101950.25;4915023;28;20313;-53
2021/10/26 06:13:36;;;;;;;31.27;13.95;;;;;;;11.36;78.54;101956.38;4925275;28;20053;-55
2021/10/26 06:16:01;;;;;;;32.40;13.40;;;;;;;11.37;78.04;101959.88;4929021;28;20050;-55
2021/10/26 06:18:27;;;;;;;46.47;15.32;;;;;;;11.33;78.31;101955.41;4925084;28;20121;-53
2021/10/26 06:20:52;;;;;;;42.95;14.40;;;;;;;11.30;78.56;101950.09;4917120;28;20130;-54
2021/10/26 06:23:18;;;;;;;34.65;13.52;;;;;;;11.42;78.01;101952.16;4926701;28;20588;-54
2021/10/26 06:25:43;;;;;;;43.65;14.55;;;;;;;11.33;78.36;101960.63;4941655;28;20530;-56
2021/10/26 06:28:09;;;;;;;48.15;15.35;;;;;;;11.34;78.33;101972.84;4924579;28;20054;-55
2021/10/26 06:30:34;;;;;;;36.95;14.00;;;;;;;11.37;78.45;101972.91;4926649;28;20068;-53
2021/10/26 06:33:00;;;;;;;33.55;13.30;;;;;;;11.34;78.54;101962.41;4915856;28;20164;-53
2021/10/26 06:35:25;;;;;;;32.05;12.85;;;;;;;11.41;78.55;101964.31;4927333;28;20364;-55
2021/10/26 06:37:51;;;;;;;44.53;14.27;;;;;;;11.36;78.53;101969.41;4925561;28;20397;-55
2021/10/26 06:40:17;;;;;;;29.58;11.82;;;;;;;11.44;78.01;101977.47;4920118;28;20052;-51
2021/10/26 06:42:44;;;;;;;44.80;13.38;;;;;;;11.42;78.37;101986.09;4925375;28;20043;-54
2021/10/26 06:45:10;;;;;;;39.72;13.18;;;;;;;11.39;78.42;101986.91;4918861;28;20093;-55
2021/10/26 06:47:36;;;;;;;33.42;12.73;;;;;;;11.40;78.22;101979.09;4916646;28;20044;-58
2021/10/26 06:50:05;;;;;;;34.65;12.50;;;;;;;11.44;78.04;101985.31;4924957;28;20051;-50
2021/10/26 06:52:31;;;;;;;39.25;12.40;;;;;;;11.47;78.47;101979.25;4916940;28;20063;-58
2021/10/26 06:54:57;;;;;;;42.25;13.80;;;;;;;11.46;78.58;101986.25;4919313;28;20122;-54
2021/10/26 06:57:24;;;;;;;40.90;13.73;;;;;;;11.57;78.50;101987.41;4925378;28;20055;-55
2021/10/26 06:59:50;;;;;;;36.95;13.02;;;;;;;11.65;78.61;101985.88;4923648;28;20055;-54
2021/10/26 07:02:15;;;;;;;37.83;13.18;;;;;;;11.72;78.27;101987.81;4919310;28;20051;-55
2021/10/26 07:04:40;;;;;;;40.22;13.30;;;;;;;11.85;78.98;101988.16;4926429;28;20582;-53
2021/10/26 07:07:06;;;;;;;42.70;13.75;;;;;;;11.95;78.76;101988.44;4913741;28;20134;-54
2021/10/26 07:09:31;;;;;;;41.33;13.88;;;;;;;12.03;78.61;101996.47;4924589;28;20712;-56
2021/10/26 07:11:57;;;;;;;48.75;13.30;;;;;;;12.08;78.79;101993.13;4925606;28;20043;-56
2021/10/26 07:14:24;;;;;;;45.05;13.90;;;;;;;12.25;78.74;101993.56;4921402;28;20122;-54
2021/10/26 07:16:49;;;;;;;37.03;13.50;;;;;;;12.37;78.59;101993.84;4911865;28;20067;-59
2021/10/26 07:19:14;;;;;;;37.45;13.40;;;;;;;12.47;78.71;101992.31;4920585;28;20234;-53
2021/10/26 07:21:41;;;;;;;35.05;13.40;;;;;;;12.59;78.36;101996.09;4922313;28;20137;-56
2021/10/26 07:24:08;;;;;;;35.25;13.05;;;;;;;12.62;78.70;102003.16;4923522;28;20053;-56
2021/10/26 07:26:34;;;;;;;32.40;13.00;;;;;;;12.81;78.70;102010.53;4924206;28;20720;-57
2021/10/26 07:28:59;;;;;;;37.42;13.48;;;;;;;12.94;78.45;102012.59;4917611;28;20427;-56
2021/10/26 07:31:25;;;;;;;39.30;13.23;;;;;;;12.95;78.31;102010.84;4918993;28;20352;-52
2021/10/26 07:33:51;;;;;;;36.00;12.73;;;;;;;13.00;77.96;102017.06;4922658;28;20405;-54
2021/10/26 07:36:18;;;;;;;33.50;13.52;;;;;;;13.06;78.20;102016.31;4914467;28;20449;-53
2021/10/26 07:38:45;;;;;;;33.72;12.82;;;;;;;13.06;78.27;102016.31;4919507;28;20035;-54
2021/10/26 07:41:11;;;;;;;28.35;12.85;;;;;;;13.17;78.03;102020.09;4915456;28;20055;-54
2021/10/26 07:43:37;;;;;;;31.13;12.40;;;;;;;13.10;77.85;102016.44;4919100;28;20050;-57
2021/10/26 07:46:04;;;;;;;30.33;11.63;;;;;;;13.10;77.71;102024.28;4916775;28;20487;-55
2021/10/26 07:48:29;;;;;;;29.90;12.07;;;;;;;13.08;77.66;102025.09;4921625;28;20078;-53
2021/10/26 07:50:59;;;;;;;25.80;11.75;;;;;;;13.13;77.75;102018.25;4913136;28;20074;-54
2021/10/26 07:53:25;;;;;;;31.92;11.20;;;;;;;13.09;77.78;102022.50;4922026;28;20106;-55
2021/10/26 07:55:52;;;;;;;28.13;11.82;;;;;;;13.16;77.57;102023.56;4918864;28;20130;-56
2021/10/26 07:58:18;;;;;;;31.33;12.07;;;;;;;13.22;77.75;102015.84;4920504;28;20051;-56
2021/10/26 08:00:44;;;;;;;25.40;11.52;;;;;;;13.19;78.13;102010.53;4919018;28;20085;-56
2021/10/26 08:03:09;;;;;;;26.48;10.80;;;;;;;13.13;77.66;102016.50;4919487;28;21516;-55
2021/10/26 08:05:35;;;;;;;25.90;11.38;;;;;;;13.22;77.82;102013.22;4924183;28;20142;-56
2021/10/26 08:08:00;;;;;;;30.80;10.98;;;;;;;13.32;77.83;102012.53;4914393;28;20051;-55
2021/10/26 08:10:26;;;;;;;27.60;10.63;;;;;;;13.39;77.76;102009.19;4916665;28;20043;-55
2021/10/26 08:12:52;;;;;;;23.52;10.07;;;;;;;13.40;77.70;102013.59;4912947;28;20082;-56
2021/10/26 08:15:17;;;;;;;25.48;10.00;;;;;;;13.53;77.89;102023.47;4923339;28;20169;-54
2021/10/26 08:17:43;;;;;;;23.27;9.88;;;;;;;13.65;77.80;102028.06;4921137;28;20087;-56
2021/10/26 08:20:09;;;;;;;25.58;9.65;;;;;;;13.71;77.69;102031.69;4919631;28;20051;-56
2021/10/26 08:22:38;;;;;;;23.67;10.20;;;;;;;13.84;77.86;102031.91;4920520;28;20131;-55
2021/10/26 08:25:11;;;;;;;23.98;10.00;;;;;;;13.99;77.95;102025.19;4919914;28;20600;-59
2021/10/26 08:27:36;;;;;;;21.85;7.82;;;;;;;13.99;77.49;102026.91;4924966;28;20070;-56
2021/10/26 08:35:27;;;;;;;21.73;8.25;;;;;;;14.30;77.04;102021.34;4906203;28;20039;-56
2021/10/26 08:38:02;;;;;;;17.65;7.22;;;;;;;14.27;76.37;102020.44;4922833;28;20161;-55
2021/10/26 08:40:28;;;;;;;15.07;7.32;;;;;;;14.32;76.25;102018.75;4914503;28;20070;-55
2021/10/26 08:42:54;;;;;;;16.30;7.80;;;;;;;14.45;76.31;102021.63;4916472;28;20109;-58
2021/10/26 08:45:22;;;;;;;16.67;7.50;;;;;;;14.50;75.84;102019.09;4922243;28;20046;-54
2021/10/26 08:47:49;;;;;;;17.58;8.25;;;;;;;14.60;76.69;102011.38;4919223;28;20047;-53
2021/10/26 08:50:18;;;;;;;15.40;7.72;;;;;;;14.72;75.54;102005.41;4925186;28;20196;-53
2021/10/26 08:52:44;;;;;;;16.15;7.28;;;;;;;14.76;74.70;102011.59;4919904;28;20550;-56
2021/10/26 08:55:09;;;;;;;17.83;7.63;;;;;;;14.49;74.62;102004.19;4920058;28;20046;-54
2021/10/26 08:57:35;;;;;;;16.75;7.97;;;;;;;14.63;74.45;102007.03;4921412;28;20047;-54
2021/10/26 09:00:06;;;;;;;17.73;7.93;;;;;;;14.64;74.26;102007.03;4919076;28;20161;-55
2021/10/26 09:02:49;;;;;;;14.70;7.85;;;;;;;14.76;74.89;102012.47;4922702;28;20403;-56
2021/10/26 09:05:20;;;;;;;18.30;8.10;;;;;;;14.78;74.57;102017.72;4921468;28;20043;-54
2021/10/26 09:08:06;;;;;;;16.08;7.50;;;;;;;14.68;73.76;102011.50;4924006;28;20411;-56
2021/10/26 09:10:34;;;;;;;18.38;8.32;;;;;;;14.77;74.17;102005.47;4919630;28;20082;-55
2021/10/26 09:18:38;;;;;;;14.85;7.88;;;;;;;14.84;74.50;102002.97;4922917;28;20057;-57
2021/10/26 09:21:04;;;;;;;21.52;8.13;;;;;;;15.01;73.23;102004.06;4914249;28;20252;-57
2021/10/26 09:23:29;;;;;;;18.13;8.38;;;;;;;15.05;73.55;102010.25;4927045;28;20689;-56
2021/10/26 09:25:57;;;;;;;17.33;7.93;;;;;;;15.16;72.73;102016.53;4927761;28;20161;-57
2021/10/26 09:28:22;;;;;;;20.60;8.48;;;;;;;15.00;72.70;102011.94;4917576;28;20089;-55
2021/10/26 09:31:03;;;;;;;20.63;8.52;;;;;;;15.04;72.54;102024.25;4917641;28;20043;-58
2021/10/26 09:33:36;;;;;;;16.42;8.43;;;;;;;14.99;73.40;102025.94;4938098;28;20050;-53
2021/10/26 09:36:39;;;;;;;18.65;8.88;;;;;;;14.89;73.43;102029.25;4943790;28;20602;-54
2021/10/26 09:39:07;;;;;;;19.35;9.65;;;;;;;14.96;73.51;102033.75;4918934;28;20893;-56
2021/10/26 09:42:00;;;;;;;18.67;9.25;;;;;;;14.84;73.81;102023.97;4921218;28;20042;-55
2021/10/26 09:44:29;;;;;;;18.58;10.43;;;;;;;14.74;74.42;102024.69;4918174;28;20403;-55
2021/10/26 09:47:10;;;;;;;20.90;9.98;;;;;;;14.71;74.13;102022.00;4915826;28;20541;-54
2021/10/26 09:49:41;;;;;;;21.25;10.25;;;;;;;14.66;74.32;102020.19;4925877;28;20046;-55
2021/10/26 09:52:16;;;;;;;23.58;10.60;;;;;;;14.43;75.52;102018.09;4926095;28;20063;-54
2021/10/26 09:54:42;;;;;;;;;;;;;;;14.45;75.61;102012.88;4928753;28;20061;-52
2021/10/26 09:57:10;;;;;;;17.50;10.40;;;;;;;14.61;75.55;102007.88;4920748;28;20294;-53
2021/10/26 09:59:36;;;;;;;20.55;11.55;;;;;;;14.73;75.05;102003.66;4925081;28;20510;-55
2021/10/26 10:02:02;;;;;;;19.55;10.05;;;;;;;14.81;75.22;102008.19;4925579;28;20074;-55
2021/10/26 10:04:33;;;;;;;19.88;10.73;;;;;;;14.85;75.25;102004.72;4931278;28;20043;-53
2021/10/26 10:07:02;;;;;;;15.90;10.23;;;;;;;14.95;74.90;102001.34;4921393;28;20090;-54
2021/10/26 10:09:28;;;;;;;15.70;10.27;;;;;;;15.00;75.40;102004.91;4926836;28;20055;-55
2021/10/26 10:12:06;;;;;;;14.52;9.43;;;;;;;15.14;74.87;102004.22;4917289;28;20404;-61
2021/10/26 10:14:40;;;;;;;15.02;9.10;;;;;;;15.34;73.87;101998.34;4924913;28;20081;-58
2021/10/26 10:17:10;;;;;;;16.48;8.35;;;;;;;15.57;73.22;101992.50;4918578;28;20134;-54
2021/10/26 10:19:36;;;;;;;13.73;7.95;;;;;;;15.73;72.19;101997.06;4939518;28;20098;-57
2021/10/26 10:22:05;;;;;;;16.58;8.68;;;;;;;15.71;72.53;102006.69;4923193;28;20039;-57
2021/10/26 10:24:33;;;;;;;12.90;7.60;;;;;;;15.83;71.73;101997.16;4928569;28;20521;-55
2021/10/26 10:26:59;;;;;;;14.30;8.00;;;;;;;15.80;72.32;101996.22;4922310;28;20415;-55
2021/10/26 10:29:24;;;;;;;11.25;7.15;;;;;;;15.78;71.22;101996.25;4924031;28;20050;-53
2021/10/26 10:31:50;;;;;;;12.57;7.03;;;;;;;15.89;71.22;101992.81;4914467;28;20078;-56
2021/10/26 10:34:20;;;;;;;14.98;7.90;;;;;;;15.62;72.04;101994.31;4921823;28;20047;-54
2021/10/26 10:36:46;;;;;;;16.05;7.75;;;;;;;15.70;71.82;102002.28;4923364;28;20617;-55
2021/10/26 10:39:13;;;;;;;13.98;8.18;;;;;;;15.88;71.54;101993.69;4914790;28;20047;-55
2021/10/26 10:41:41;;;;;;;15.32;8.63;;;;;;;16.01;71.19;101995.56;4917494;28;20047;-53
2021/10/26 10:44:19;;;;;;;15.18;8.27;;;;;;;16.00;71.68;101991.16;4924491;28;20044;-54
2021/10/26 10:46:47;;;;;;;17.88;8.23;;;;;;;16.09;70.66;101991.28;4918559;28;20162;-54
2021/10/26 10:49:18;;;;;;;18.30;9.15;;;;;;;16.04;70.29;101996.47;4921981;28;20054;-53
2021/10/26 10:52:00;;;;;;;14.48;8.40;;;;;;;16.18;70.15;101986.06;4920702;28;20043;-55
2021/10/26 10:54:36;;;;;;;12.77;8.07;;;;;;;16.17;70.15;101993.06;4925098;28;20142;-56
2021/10/26 10:57:14;;;;;;;17.30;9.32;;;;;;;16.26;70.58;101987.00;4919333;28;20079;-56
2021/10/26 10:59:45;;;;;;;15.18;8.95;;;;;;;16.35;70.20;101986.19;4921466;28;20146;-55
2021/10/26 11:02:19;;;;;;;14.95;8.50;;;;;;;16.09;71.02;102000.03;4919917;28;20075;-53
2021/10/26 11:04:45;;;;;;;17.00;7.43;;;;;;;16.26;69.47;101988.75;4918418;28;20050;-56
2021/10/26 11:07:11;;;;;;;13.77;7.03;;;;;;;16.36;68.85;101991.47;4918750;28;20460;-56
2021/10/26 11:09:42;;;;;;;15.63;6.50;;;;;;;16.39;69.49;101993.25;4926112;28;20101;-53
2021/10/26 11:12:14;;;;;;;12.85;6.25;;;;;;;16.50;68.48;101999.47;4924518;28;20479;-55
2021/10/26 11:14:55;;;;;;;17.33;6.63;;;;;;;16.37;68.97;102001.13;4921109;28;20075;-55
2021/10/26 11:17:36;;;;;;;18.40;7.22;;;;;;;16.27;69.78;101998.44;4912962;28;20190;-56
2021/10/26 11:20:32;;;;;;;12.27;6.70;;;;;;;16.65;68.07;101991.69;4921598;28;20051;-56
2021/10/26 11:23:03;;;;;;;14.55;7.90;;;;;;;16.38;67.84;101987.09;4918612;28;20507;-56
2021/10/26 11:25:34;;;;;;;16.80;8.45;;;;;;;16.46;67.25;101988.06;4924234;28;20047;-55